sensor_id;sensor_type;location;lat;lon;timestamp;P1;durP1;ratioP1;P2;durP2;ratioP2
19004;SDS011;9635;52.078;8.648;2024-03-17T00:03:03;10.95;;;4.43;;
19004;SDS011;9635;52.078;8.648;2024-03-17T00:13:10;14.13;;;4.45;;
19004;SDS011;9635;52.078;8.648;2024-03-17T00:18:12;15.07;;;4.90;;
19004;SDS011;9635;52.078;8.648;2024-03-17T00:23:15;13.00;;;4.63;;
19004;SDS011;9635;52.078;8.648;2024-03-17T00:28:18;10.77;;;5.55;;
19004;SDS011;9635;52.078;8.648;2024-03-17T00:33:21;8.95;;;4.13;;
19004;SDS011;9635;52.078;8.648;2024-03-17T00:38:24;7.10;;;4.30;;
19004;SDS011;9635;52.078;8.648;2024-03-17T00:48:30;13.00;;;4.80;;
19004;SDS011;9635;52.078;8.648;2024-03-17T00:53:33;9.68;;;5.10;;
19004;SDS011;9635;52.078;8.648;2024-03-17T00:58:36;8.50;;;4.40;;
19004;SDS011;9635;52.078;8.648;2024-03-17T01:03:39;10.43;;;4.95;;
19004;SDS011;9635;52.078;8.648;2024-03-17T01:08:41;11.43;;;5.30;;
19004;SDS011;9635;52.078;8.648;2024-03-17T01:13:46;10.90;;;5.22;;
19004;SDS011;9635;52.078;8.648;2024-03-17T01:18:48;10.15;;;4.88;;
19004;SDS011;9635;52.078;8.648;2024-03-17T01:23:50;9.18;;;4.60;;
19004;SDS011;9635;52.078;8.648;2024-03-17T01:28:53;7.32;;;4.97;;
19004;SDS011;9635;52.078;8.648;2024-03-17T01:33:56;15.40;;;5.60;;
19004;SDS011;9635;52.078;8.648;2024-03-17T01:38:58;10.02;;;5.05;;
19004;SDS011;9635;52.078;8.648;2024-03-17T01:49:03;10.93;;;4.82;;
19004;SDS011;9635;52.078;8.648;2024-03-17T01:54:08;12.27;;;5.60;;
19004;SDS011;9635;52.078;8.648;2024-03-17T02:04:14;11.88;;;5.38;;
19004;SDS011;9635;52.078;8.648;2024-03-17T02:09:18;9.32;;;5.32;;
19004;SDS011;9635;52.078;8.648;2024-03-17T02:14:23;14.80;;;6.00;;
19004;SDS011;9635;52.078;8.648;2024-03-17T02:19:26;11.40;;;5.40;;
19004;SDS011;9635;52.078;8.648;2024-03-17T02:24:29;10.80;;;5.68;;
19004;SDS011;9635;52.078;8.648;2024-03-17T02:29:31;12.15;;;5.72;;
19004;SDS011;9635;52.078;8.648;2024-03-17T02:34:33;11.45;;;4.72;;
19004;SDS011;9635;52.078;8.648;2024-03-17T02:39:37;10.95;;;6.10;;
19004;SDS011;9635;52.078;8.648;2024-03-17T02:44:39;11.85;;;6.40;;
19004;SDS011;9635;52.078;8.648;2024-03-17T02:49:41;14.27;;;6.75;;
19004;SDS011;9635;52.078;8.648;2024-03-17T02:54:46;15.07;;;7.70;;
19004;SDS011;9635;52.078;8.648;2024-03-17T02:59:48;13.95;;;7.47;;
19004;SDS011;9635;52.078;8.648;2024-03-17T03:04:50;13.02;;;7.45;;
19004;SDS011;9635;52.078;8.648;2024-03-17T03:14:55;21.00;;;8.05;;
19004;SDS011;9635;52.078;8.648;2024-03-17T03:19:57;14.80;;;7.95;;
19004;SDS011;9635;52.078;8.648;2024-03-17T03:25:03;10.73;;;7.53;;
19004;SDS011;9635;52.078;8.648;2024-03-17T03:30:06;12.80;;;7.70;;
19004;SDS011;9635;52.078;8.648;2024-03-17T03:35:09;13.48;;;7.90;;
19004;SDS011;9635;52.078;8.648;2024-03-17T03:40:13;20.35;;;7.68;;
19004;SDS011;9635;52.078;8.648;2024-03-17T03:45:18;10.75;;;6.65;;
19004;SDS011;9635;52.078;8.648;2024-03-17T03:50:21;14.60;;;6.95;;
19004;SDS011;9635;52.078;8.648;2024-03-17T03:55:25;15.52;;;6.72;;
19004;SDS011;9635;52.078;8.648;2024-03-17T04:00:27;10.40;;;6.28;;
19004;SDS011;9635;52.078;8.648;2024-03-17T04:05:32;11.50;;;6.47;;
19004;SDS011;9635;52.078;8.648;2024-03-17T04:10:36;11.85;;;5.22;;
19004;SDS011;9635;52.078;8.648;2024-03-17T04:15:38;11.57;;;5.78;;
19004;SDS011;9635;52.078;8.648;2024-03-17T04:20:40;9.38;;;5.70;;
19004;SDS011;9635;52.078;8.648;2024-03-17T04:30:45;7.72;;;5.13;;
19004;SDS011;9635;52.078;8.648;2024-03-17T04:35:48;10.13;;;5.32;;
19004;SDS011;9635;52.078;8.648;2024-03-17T04:40:51;13.57;;;5.68;;
19004;SDS011;9635;52.078;8.648;2024-03-17T04:46:00;12.57;;;6.20;;
19004;SDS011;9635;52.078;8.648;2024-03-17T04:51:04;10.73;;;5.65;;
19004;SDS011;9635;52.078;8.648;2024-03-17T05:01:10;14.07;;;5.90;;
19004;SDS011;9635;52.078;8.648;2024-03-17T05:06:13;10.27;;;5.75;;
19004;SDS011;9635;52.078;8.648;2024-03-17T05:11:16;13.88;;;5.93;;
19004;SDS011;9635;52.078;8.648;2024-03-17T05:16:20;14.63;;;6.07;;
19004;SDS011;9635;52.078;8.648;2024-03-17T05:21:24;14.98;;;6.35;;
19004;SDS011;9635;52.078;8.648;2024-03-17T05:26:28;11.18;;;6.63;;
19004;SDS011;9635;52.078;8.648;2024-03-17T05:31:31;11.35;;;7.40;;
19004;SDS011;9635;52.078;8.648;2024-03-17T05:36:33;14.25;;;6.65;;
19004;SDS011;9635;52.078;8.648;2024-03-17T05:41:37;15.50;;;7.30;;
19004;SDS011;9635;52.078;8.648;2024-03-17T05:46:39;17.33;;;6.75;;
19004;SDS011;9635;52.078;8.648;2024-03-17T05:51:41;11.77;;;6.40;;
19004;SDS011;9635;52.078;8.648;2024-03-17T05:56:44;11.98;;;6.63;;
19004;SDS011;9635;52.078;8.648;2024-03-17T06:01:47;11.95;;;6.57;;
19004;SDS011;9635;52.078;8.648;2024-03-17T06:06:49;12.07;;;7.57;;
19004;SDS011;9635;52.078;8.648;2024-03-17T06:11:52;14.13;;;7.40;;
19004;SDS011;9635;52.078;8.648;2024-03-17T06:16:54;14.85;;;7.00;;
19004;SDS011;9635;52.078;8.648;2024-03-17T06:21:56;11.48;;;6.80;;
19004;SDS011;9635;52.078;8.648;2024-03-17T06:27:00;12.02;;;6.78;;
19004;SDS011;9635;52.078;8.648;2024-03-17T06:32:02;13.80;;;6.45;;
19004;SDS011;9635;52.078;8.648;2024-03-17T06:37:04;13.20;;;6.63;;
19004;SDS011;9635;52.078;8.648;2024-03-17T06:42:08;10.40;;;6.20;;
19004;SDS011;9635;52.078;8.648;2024-03-17T06:47:11;14.20;;;6.40;;
19004;SDS011;9635;52.078;8.648;2024-03-17T06:52:13;12.63;;;5.32;;
19004;SDS011;9635;52.078;8.648;2024-03-17T06:57:17;22.00;;;11.15;;
19004;SDS011;9635;52.078;8.648;2024-03-17T07:02:19;15.60;;;7.03;;
19004;SDS011;9635;52.078;8.648;2024-03-17T07:07:22;13.18;;;5.85;;
19004;SDS011;9635;52.078;8.648;2024-03-17T07:12:26;11.43;;;6.47;;
19004;SDS011;9635;52.078;8.648;2024-03-17T07:17:28;12.18;;;5.57;;
19004;SDS011;9635;52.078;8.648;2024-03-17T07:22:30;7.32;;;5.30;;
19004;SDS011;9635;52.078;8.648;2024-03-17T07:27:33;8.55;;;5.07;;
19004;SDS011;9635;52.078;8.648;2024-03-17T07:32:38;12.60;;;6.88;;
19004;SDS011;9635;52.078;8.648;2024-03-17T07:37:40;9.02;;;5.45;;
19004;SDS011;9635;52.078;8.648;2024-03-17T07:42:43;15.40;;;7.22;;
19004;SDS011;9635;52.078;8.648;2024-03-17T07:47:50;13.05;;;6.55;;
19004;SDS011;9635;52.078;8.648;2024-03-17T07:52:52;13.30;;;7.35;;
19004;SDS011;9635;52.078;8.648;2024-03-17T07:57:56;12.38;;;5.57;;
19004;SDS011;9635;52.078;8.648;2024-03-17T08:02:58;15.88;;;7.60;;
19004;SDS011;9635;52.078;8.648;2024-03-17T08:08:00;12.63;;;7.57;;
19004;SDS011;9635;52.078;8.648;2024-03-17T08:13:04;17.52;;;6.55;;
19004;SDS011;9635;52.078;8.648;2024-03-17T08:18:09;15.00;;;6.28;;
19004;SDS011;9635;52.078;8.648;2024-03-17T08:23:12;10.00;;;5.50;;
19004;SDS011;9635;52.078;8.648;2024-03-17T08:28:15;14.18;;;5.80;;
19004;SDS011;9635;52.078;8.648;2024-03-17T08:33:18;7.10;;;4.95;;
19004;SDS011;9635;52.078;8.648;2024-03-17T08:38:20;9.45;;;6.00;;
19004;SDS011;9635;52.078;8.648;2024-03-17T08:43:25;10.50;;;5.53;;
19004;SDS011;9635;52.078;8.648;2024-03-17T08:48:27;10.10;;;6.28;;
19004;SDS011;9635;52.078;8.648;2024-03-17T08:53:31;12.07;;;7.53;;
19004;SDS011;9635;52.078;8.648;2024-03-17T08:58:35;13.52;;;7.63;;
19004;SDS011;9635;52.078;8.648;2024-03-17T09:03:37;13.55;;;8.32;;
19004;SDS011;9635;52.078;8.648;2024-03-17T09:08:40;15.20;;;9.40;;
19004;SDS011;9635;52.078;8.648;2024-03-17T09:13:44;17.33;;;8.75;;
19004;SDS011;9635;52.078;8.648;2024-03-17T09:18:46;14.60;;;7.82;;
19004;SDS011;9635;52.078;8.648;2024-03-17T09:23:49;14.02;;;9.07;;
19004;SDS011;9635;52.078;8.648;2024-03-17T09:28:53;15.05;;;8.80;;
19004;SDS011;9635;52.078;8.648;2024-03-17T09:33:55;13.02;;;8.82;;
19004;SDS011;9635;52.078;8.648;2024-03-17T09:38:57;19.85;;;9.88;;
19004;SDS011;9635;52.078;8.648;2024-03-17T09:44:02;17.40;;;9.90;;
19004;SDS011;9635;52.078;8.648;2024-03-17T09:49:15;18.67;;;10.63;;
19004;SDS011;9635;52.078;8.648;2024-03-17T09:54:18;17.90;;;9.90;;
19004;SDS011;9635;52.078;8.648;2024-03-17T09:59:22;14.57;;;9.38;;
19004;SDS011;9635;52.078;8.648;2024-03-17T10:04:31;14.43;;;9.75;;
19004;SDS011;9635;52.078;8.648;2024-03-17T10:09:34;18.25;;;10.18;;
19004;SDS011;9635;52.078;8.648;2024-03-17T10:14:38;12.20;;;5.45;;
19004;SDS011;9635;52.078;8.648;2024-03-17T10:19:40;13.27;;;8.25;;
19004;SDS011;9635;52.078;8.648;2024-03-17T10:24:42;12.27;;;7.93;;
19004;SDS011;9635;52.078;8.648;2024-03-17T10:29:47;10.00;;;7.45;;
19004;SDS011;9635;52.078;8.648;2024-03-17T10:34:49;13.00;;;8.32;;
19004;SDS011;9635;52.078;8.648;2024-03-17T10:39:52;12.32;;;8.80;;
19004;SDS011;9635;52.078;8.648;2024-03-17T10:44:57;16.30;;;9.90;;
19004;SDS011;9635;52.078;8.648;2024-03-17T10:49:59;16.52;;;9.98;;
19004;SDS011;9635;52.078;8.648;2024-03-17T10:55:07;17.38;;;9.68;;
19004;SDS011;9635;52.078;8.648;2024-03-17T11:00:12;16.10;;;10.20;;
19004;SDS011;9635;52.078;8.648;2024-03-17T11:05:18;14.70;;;9.23;;
19004;SDS011;9635;52.078;8.648;2024-03-17T11:10:23;16.25;;;8.82;;
19004;SDS011;9635;52.078;8.648;2024-03-17T11:20:55;14.32;;;9.65;;
19004;SDS011;9635;52.078;8.648;2024-03-17T11:25:58;15.13;;;9.52;;
19004;SDS011;9635;52.078;8.648;2024-03-17T11:31:02;14.98;;;9.70;;
19004;SDS011;9635;52.078;8.648;2024-03-17T11:41:37;13.95;;;9.90;;
19004;SDS011;9635;52.078;8.648;2024-03-17T11:46:42;16.98;;;10.65;;
19004;SDS011;9635;52.078;8.648;2024-03-17T11:51:44;16.27;;;10.98;;
19004;SDS011;9635;52.078;8.648;2024-03-17T11:56:47;13.43;;;10.05;;
19004;SDS011;9635;52.078;8.648;2024-03-17T12:01:52;15.00;;;10.10;;
19004;SDS011;9635;52.078;8.648;2024-03-17T12:06:55;16.40;;;10.00;;
19004;SDS011;9635;52.078;8.648;2024-03-17T12:11:58;14.85;;;10.15;;
19004;SDS011;9635;52.078;8.648;2024-03-17T12:17:03;14.65;;;10.85;;
19004;SDS011;9635;52.078;8.648;2024-03-17T12:22:07;15.82;;;10.95;;
19004;SDS011;9635;52.078;8.648;2024-03-17T12:27:13;15.65;;;10.52;;
19004;SDS011;9635;52.078;8.648;2024-03-17T12:32:20;14.38;;;10.80;;
19004;SDS011;9635;52.078;8.648;2024-03-17T12:37:24;15.43;;;10.63;;
19004;SDS011;9635;52.078;8.648;2024-03-17T12:42:29;16.13;;;11.55;;
19004;SDS011;9635;52.078;8.648;2024-03-17T12:47:34;16.45;;;11.77;;
19004;SDS011;9635;52.078;8.648;2024-03-17T12:52:36;15.38;;;10.88;;
19004;SDS011;9635;52.078;8.648;2024-03-17T12:57:39;14.82;;;11.15;;
19004;SDS011;9635;52.078;8.648;2024-03-17T13:03:00;17.00;;;11.93;;
19004;SDS011;9635;52.078;8.648;2024-03-17T13:08:03;19.33;;;12.35;;
19004;SDS011;9635;52.078;8.648;2024-03-17T13:13:07;17.80;;;12.68;;
19004;SDS011;9635;52.078;8.648;2024-03-17T13:18:15;11.27;;;9.90;;
19004;SDS011;9635;52.078;8.648;2024-03-17T13:23:20;15.55;;;10.18;;
19004;SDS011;9635;52.078;8.648;2024-03-17T13:28:24;13.48;;;11.18;;
19004;SDS011;9635;52.078;8.648;2024-03-17T13:33:28;15.32;;;11.27;;
19004;SDS011;9635;52.078;8.648;2024-03-17T13:38:30;14.05;;;9.65;;
19004;SDS011;9635;52.078;8.648;2024-03-17T13:43:32;14.77;;;9.05;;
19004;SDS011;9635;52.078;8.648;2024-03-17T13:48:35;14.13;;;9.60;;
19004;SDS011;9635;52.078;8.648;2024-03-17T13:53:37;12.38;;;8.43;;
19004;SDS011;9635;52.078;8.648;2024-03-17T14:03:43;20.83;;;12.10;;
19004;SDS011;9635;52.078;8.648;2024-03-17T14:08:46;8.98;;;7.07;;
19004;SDS011;9635;52.078;8.648;2024-03-17T14:13:48;8.15;;;6.60;;
19004;SDS011;9635;52.078;8.648;2024-03-17T14:18:52;10.02;;;6.10;;
19004;SDS011;9635;52.078;8.648;2024-03-17T14:23:54;10.73;;;7.07;;
19004;SDS011;9635;52.078;8.648;2024-03-17T14:34:01;10.07;;;6.85;;
19004;SDS011;9635;52.078;8.648;2024-03-17T14:39:03;14.23;;;8.05;;
19004;SDS011;9635;52.078;8.648;2024-03-17T14:44:05;12.10;;;7.30;;
19004;SDS011;9635;52.078;8.648;2024-03-17T14:49:10;10.75;;;7.07;;
19004;SDS011;9635;52.078;8.648;2024-03-17T14:54:12;9.85;;;7.13;;
19004;SDS011;9635;52.078;8.648;2024-03-17T14:59:14;8.20;;;6.70;;
19004;SDS011;9635;52.078;8.648;2024-03-17T15:04:20;10.35;;;6.95;;
19004;SDS011;9635;52.078;8.648;2024-03-17T15:09:22;11.63;;;8.60;;
19004;SDS011;9635;52.078;8.648;2024-03-17T15:14:24;18.85;;;11.75;;
19004;SDS011;9635;52.078;8.648;2024-03-17T15:19:28;18.65;;;12.93;;
19004;SDS011;9635;52.078;8.648;2024-03-17T15:24:30;19.27;;;13.02;;
19004;SDS011;9635;52.078;8.648;2024-03-17T15:29:32;23.17;;;15.15;;
19004;SDS011;9635;52.078;8.648;2024-03-17T15:34:36;18.55;;;12.82;;
19004;SDS011;9635;52.078;8.648;2024-03-17T15:39:38;21.58;;;14.15;;
19004;SDS011;9635;52.078;8.648;2024-03-17T15:44:41;20.25;;;13.65;;
19004;SDS011;9635;52.078;8.648;2024-03-17T15:49:45;20.27;;;12.95;;
19004;SDS011;9635;52.078;8.648;2024-03-17T15:54:48;18.08;;;13.07;;
19004;SDS011;9635;52.078;8.648;2024-03-17T15:59:50;18.38;;;12.68;;
19004;SDS011;9635;52.078;8.648;2024-03-17T16:04:55;18.00;;;12.82;;
19004;SDS011;9635;52.078;8.648;2024-03-17T16:09:57;16.33;;;11.63;;
19004;SDS011;9635;52.078;8.648;2024-03-17T16:14:59;19.30;;;12.68;;
19004;SDS011;9635;52.078;8.648;2024-03-17T16:20:03;16.02;;;11.10;;
19004;SDS011;9635;52.078;8.648;2024-03-17T16:25:10;17.52;;;11.82;;
19004;SDS011;9635;52.078;8.648;2024-03-17T16:30:12;17.02;;;10.20;;
19004;SDS011;9635;52.078;8.648;2024-03-17T16:35:16;15.88;;;10.75;;
19004;SDS011;9635;52.078;8.648;2024-03-17T16:40:18;18.80;;;10.63;;
19004;SDS011;9635;52.078;8.648;2024-03-17T16:45:21;18.83;;;10.63;;
19004;SDS011;9635;52.078;8.648;2024-03-17T16:50:29;14.77;;;11.13;;
19004;SDS011;9635;52.078;8.648;2024-03-17T16:55:32;18.02;;;12.10;;
19004;SDS011;9635;52.078;8.648;2024-03-17T17:00:35;18.23;;;12.82;;
19004;SDS011;9635;52.078;8.648;2024-03-17T17:05:38;16.77;;;10.80;;
19004;SDS011;9635;52.078;8.648;2024-03-17T17:10:40;18.73;;;10.35;;
19004;SDS011;9635;52.078;8.648;2024-03-17T17:15:43;14.65;;;10.93;;
19004;SDS011;9635;52.078;8.648;2024-03-17T17:25:48;19.17;;;12.40;;
19004;SDS011;9635;52.078;8.648;2024-03-17T17:30:53;17.30;;;10.77;;
19004;SDS011;9635;52.078;8.648;2024-03-17T17:35:57;16.33;;;11.00;;
19004;SDS011;9635;52.078;8.648;2024-03-17T17:40:59;22.27;;;13.32;;
19004;SDS011;9635;52.078;8.648;2024-03-17T17:46:05;19.05;;;11.65;;
19004;SDS011;9635;52.078;8.648;2024-03-17T17:51:09;16.45;;;11.68;;
19004;SDS011;9635;52.078;8.648;2024-03-17T17:56:16;24.27;;;13.65;;
19004;SDS011;9635;52.078;8.648;2024-03-17T18:01:19;23.15;;;14.10;;
19004;SDS011;9635;52.078;8.648;2024-03-17T18:11:25;21.25;;;13.32;;
19004;SDS011;9635;52.078;8.648;2024-03-17T18:16:27;23.25;;;13.70;;
19004;SDS011;9635;52.078;8.648;2024-03-17T18:21:31;21.33;;;13.75;;
19004;SDS011;9635;52.078;8.648;2024-03-17T18:26:33;21.75;;;13.18;;
19004;SDS011;9635;52.078;8.648;2024-03-17T18:37:03;20.75;;;13.35;;
19004;SDS011;9635;52.078;8.648;2024-03-17T18:42:06;19.67;;;12.57;;
19004;SDS011;9635;52.078;8.648;2024-03-17T18:47:10;20.17;;;13.13;;
19004;SDS011;9635;52.078;8.648;2024-03-17T18:52:14;18.55;;;12.77;;
19004;SDS011;9635;52.078;8.648;2024-03-17T18:57:16;21.48;;;12.88;;
19004;SDS011;9635;52.078;8.648;2024-03-17T19:02:18;20.95;;;13.27;;
19004;SDS011;9635;52.078;8.648;2024-03-17T19:07:23;22.42;;;13.77;;
19004;SDS011;9635;52.078;8.648;2024-03-17T19:12:28;24.42;;;14.57;;
19004;SDS011;9635;52.078;8.648;2024-03-17T19:17:31;22.25;;;15.20;;
19004;SDS011;9635;52.078;8.648;2024-03-17T19:22:40;22.80;;;13.63;;
19004;SDS011;9635;52.078;8.648;2024-03-17T19:27:43;21.30;;;13.00;;
19004;SDS011;9635;52.078;8.648;2024-03-17T19:32:45;21.10;;;13.05;;
19004;SDS011;9635;52.078;8.648;2024-03-17T19:37:50;21.08;;;12.75;;
19004;SDS011;9635;52.078;8.648;2024-03-17T19:42:53;25.38;;;13.63;;
19004;SDS011;9635;52.078;8.648;2024-03-17T19:47:55;25.30;;;14.27;;
19004;SDS011;9635;52.078;8.648;2024-03-17T19:52:58;19.50;;;11.77;;
19004;SDS011;9635;52.078;8.648;2024-03-17T19:58:00;17.67;;;11.63;;
19004;SDS011;9635;52.078;8.648;2024-03-17T20:03:04;21.48;;;12.20;;
19004;SDS011;9635;52.078;8.648;2024-03-17T20:08:08;19.35;;;12.77;;
19004;SDS011;9635;52.078;8.648;2024-03-17T20:13:11;19.35;;;12.18;;
19004;SDS011;9635;52.078;8.648;2024-03-17T20:18:13;21.20;;;11.48;;
19004;SDS011;9635;52.078;8.648;2024-03-17T20:23:17;19.70;;;12.05;;
19004;SDS011;9635;52.078;8.648;2024-03-17T20:28:19;19.00;;;11.70;;
19004;SDS011;9635;52.078;8.648;2024-03-17T20:38:24;17.73;;;11.60;;
19004;SDS011;9635;52.078;8.648;2024-03-17T20:43:26;17.77;;;11.57;;
19004;SDS011;9635;52.078;8.648;2024-03-17T20:48:28;23.52;;;13.73;;
19004;SDS011;9635;52.078;8.648;2024-03-17T20:53:33;22.33;;;13.55;;
19004;SDS011;9635;52.078;8.648;2024-03-17T20:58:36;20.27;;;12.27;;
19004;SDS011;9635;52.078;8.648;2024-03-17T21:03:38;24.90;;;12.82;;
19004;SDS011;9635;52.078;8.648;2024-03-17T21:08:46;19.08;;;11.82;;
19004;SDS011;9635;52.078;8.648;2024-03-17T21:13:48;22.75;;;12.43;;
19004;SDS011;9635;52.078;8.648;2024-03-17T21:23:54;19.83;;;11.43;;
19004;SDS011;9635;52.078;8.648;2024-03-17T21:28:56;17.38;;;11.85;;
19004;SDS011;9635;52.078;8.648;2024-03-17T21:33:58;17.50;;;11.45;;
19004;SDS011;9635;52.078;8.648;2024-03-17T21:39:02;18.63;;;11.60;;
19004;SDS011;9635;52.078;8.648;2024-03-17T21:44:05;18.80;;;11.00;;
19004;SDS011;9635;52.078;8.648;2024-03-17T21:49:08;18.75;;;11.35;;
19004;SDS011;9635;52.078;8.648;2024-03-17T21:54:11;17.13;;;11.45;;
19004;SDS011;9635;52.078;8.648;2024-03-17T21:59:13;22.00;;;11.35;;
19004;SDS011;9635;52.078;8.648;2024-03-17T22:04:17;18.52;;;11.32;;
19004;SDS011;9635;52.078;8.648;2024-03-17T22:09:21;18.38;;;11.32;;
19004;SDS011;9635;52.078;8.648;2024-03-17T22:14:23;19.77;;;11.43;;
19004;SDS011;9635;52.078;8.648;2024-03-17T22:19:25;20.92;;;10.77;;
19004;SDS011;9635;52.078;8.648;2024-03-17T22:24:32;17.20;;;11.63;;
19004;SDS011;9635;52.078;8.648;2024-03-17T22:29:34;18.48;;;11.55;;
19004;SDS011;9635;52.078;8.648;2024-03-17T22:34:36;16.52;;;10.93;;
19004;SDS011;9635;52.078;8.648;2024-03-17T22:44:45;17.08;;;10.90;;
19004;SDS011;9635;52.078;8.648;2024-03-17T22:49:47;16.48;;;10.90;;
19004;SDS011;9635;52.078;8.648;2024-03-17T22:54:50;17.13;;;10.30;;
19004;SDS011;9635;52.078;8.648;2024-03-17T22:59:52;21.77;;;11.82;;
19004;SDS011;9635;52.078;8.648;2024-03-17T23:04:54;18.60;;;11.23;;
19004;SDS011;9635;52.078;8.648;2024-03-17T23:09:58;17.27;;;11.30;;
19004;SDS011;9635;52.078;8.648;2024-03-17T23:15:00;20.55;;;11.30;;
19004;SDS011;9635;52.078;8.648;2024-03-17T23:20:02;20.60;;;11.55;;
19004;SDS011;9635;52.078;8.648;2024-03-17T23:25:07;22.25;;;12.18;;
19004;SDS011;9635;52.078;8.648;2024-03-17T23:30:09;20.80;;;12.80;;
19004;SDS011;9635;52.078;8.648;2024-03-17T23:35:12;21.73;;;13.70;;
19004;SDS011;9635;52.078;8.648;2024-03-17T23:40:15;18.15;;;12.02;;
19004;SDS011;9635;52.078;8.648;2024-03-17T23:45:18;18.27;;;12.10;;
19004;SDS011;9635;52.078;8.648;2024-03-17T23:50:21;21.40;;;12.07;;
19004;SDS011;9635;52.078;8.648;2024-03-17T23:55:25;14.70;;;10.70;;
